createdAt,value
2019-04-14T00:00:59.680Z,88.20
2019-04-14T00:02:53.359Z,88.30
2019-04-14T00:04:26.925Z,88.40
2019-04-14T00:05:56.129Z,88.70
2019-04-14T00:07:23.055Z,88.80
2019-04-14T00:08:49.832Z,88.80
2019-04-14T00:10:18.258Z,88.70
2019-04-14T00:11:45.972Z,88.70
2019-04-14T00:13:11.717Z,88.80
2019-04-14T00:14:38.199Z,88.60
2019-04-14T00:16:05.094Z,88.60
2019-04-14T00:17:31.071Z,88.60
2019-04-14T00:18:57.658Z,88.50
2019-04-14T00:20:23.467Z,88.60
2019-04-14T00:21:50.062Z,89.40
2019-04-14T00:23:15.825Z,88.60
2019-04-14T00:24:42.442Z,88.60
2019-04-14T00:26:31.626Z,88.40
2019-04-14T00:27:58.550Z,88.40
2019-04-14T00:29:24.238Z,88.50
2019-04-14T00:30:49.823Z,88.40
2019-04-14T00:32:16.266Z,88.00
2019-04-14T00:33:43.159Z,87.80
2019-04-14T00:35:14.660Z,87.70
2019-04-14T00:36:59.735Z,87.60
2019-04-14T00:38:28.617Z,87.80
2019-04-14T00:39:57.545Z,88.10
2019-04-14T00:41:48.501Z,88.30
2019-04-14T00:43:37.414Z,88.40
2019-04-14T00:45:11.516Z,88.70
2019-04-14T00:46:40.964Z,88.30
2019-04-14T00:48:13.133Z,88.00
2019-04-14T00:49:37.546Z,88.00
2019-04-14T00:51:03.267Z,88.00
2019-04-14T00:52:29.847Z,87.90
2019-04-14T00:53:55.762Z,87.90
2019-04-14T00:55:22.556Z,87.90
2019-04-14T00:56:48.266Z,87.60
2019-04-14T00:58:14.804Z,87.20
2019-04-14T00:59:40.398Z,87.00
2019-04-14T01:01:06.944Z,87.00
2019-04-14T01:02:32.555Z,87.20
2019-04-14T01:03:59.141Z,87.50
2019-04-14T01:05:24.753Z,87.80
2019-04-14T01:06:51.145Z,87.90
2019-04-14T01:08:16.874Z,87.90
2019-04-14T01:09:42.583Z,87.90
2019-04-14T01:11:08.065Z,87.80
2019-04-14T01:12:34.172Z,87.70
2019-04-14T01:13:59.811Z,87.80
2019-04-14T01:15:26.715Z,87.90
2019-04-14T01:16:52.305Z,87.80
2019-04-14T01:18:18.947Z,87.60
2019-04-14T01:19:45.735Z,87.80
2019-04-14T01:21:11.549Z,87.30
2019-04-14T01:22:38.078Z,87.20
2019-04-14T01:24:05.334Z,87.10
2019-04-14T01:25:30.912Z,87.20
2019-04-14T01:26:57.116Z,87.10
2019-04-14T01:28:22.756Z,86.90
2019-04-14T01:29:49.442Z,86.80
2019-04-14T01:31:16.140Z,86.70
2019-04-14T01:32:41.808Z,87.00
2019-04-14T01:34:08.358Z,87.10
2019-04-14T01:35:35.732Z,87.40
2019-04-14T01:37:01.360Z,87.40
2019-04-14T01:38:27.604Z,87.20
2019-04-14T01:39:53.159Z,86.80
2019-04-14T01:41:19.346Z,86.50
2019-04-14T01:42:44.913Z,86.30
2019-04-14T01:44:11.237Z,85.80
2019-04-14T01:45:36.806Z,85.50
2019-04-14T01:47:03.116Z,85.60
2019-04-14T01:48:28.964Z,85.70
2019-04-14T01:49:55.568Z,85.40
2019-04-14T01:51:37.397Z,85.20
2019-04-14T01:53:25.032Z,85.00
2019-04-14T01:55:09.453Z,85.60
2019-04-14T01:56:53.758Z,85.10
2019-04-14T01:58:22.874Z,85.00
2019-04-14T01:59:48.576Z,84.80
2019-04-14T02:01:21.729Z,84.90
2019-04-14T02:02:48.503Z,84.90
2019-04-14T02:04:14.304Z,84.70
2019-04-14T02:05:40.707Z,84.70
2019-04-14T02:07:08.024Z,84.70
2019-04-14T02:08:35.071Z,84.60
2019-04-14T02:10:01.996Z,84.40
2019-04-14T02:11:29.025Z,83.90
2019-04-14T02:12:56.270Z,83.80
2019-04-14T02:14:23.263Z,83.90
2019-04-14T02:15:48.981Z,84.00
2019-04-14T02:17:15.393Z,84.10
2019-04-14T02:18:41.119Z,83.80
2019-04-14T02:20:07.831Z,83.40
2019-04-14T02:21:34.454Z,83.60
2019-04-14T02:23:01.684Z,84.20
2019-04-14T02:24:28.721Z,83.00
2019-04-14T02:25:55.772Z,83.20
2019-04-14T02:27:21.455Z,83.50
2019-04-14T02:28:48.217Z,83.50
2019-04-14T02:30:19.286Z,83.40
2019-04-14T02:32:13.392Z,83.30
2019-04-14T02:33:38.995Z,83.00
2019-04-14T02:35:02.165Z,83.10
2019-04-14T02:36:36.062Z,83.30
2019-04-14T02:38:03.049Z,83.30
2019-04-14T02:39:43.826Z,83.70
2019-04-14T02:40:53.650Z,84.10
2019-04-14T02:45:19.474Z,84.70
2019-04-14T02:46:49.529Z,84.80
2019-04-14T02:48:20.460Z,85.00
2019-04-14T02:51:07.970Z,85.00
2019-04-14T02:52:29.881Z,84.80
2019-04-14T02:54:23.147Z,84.90
2019-04-14T02:55:15.326Z,85.10
2019-04-14T02:56:52.839Z,85.80
2019-04-14T02:58:20.143Z,85.50
2019-04-14T02:59:43.090Z,85.70
2019-04-14T03:01:14.657Z,85.90
2019-04-14T03:02:38.625Z,86.10
2019-04-14T03:04:04.038Z,86.20
2019-04-14T03:05:39.522Z,85.90
2019-04-14T03:09:52.375Z,86.50
2019-04-14T03:11:25.766Z,86.50
2019-04-14T03:12:51.030Z,86.40
2019-04-14T03:14:19.637Z,86.50
2019-04-14T03:17:30.232Z,86.60
2019-04-14T03:19:09.489Z,86.70
2019-04-14T03:21:01.507Z,86.60
2019-04-14T03:22:45.954Z,86.30
2019-04-14T03:25:43.645Z,85.90
2019-04-14T03:27:32.953Z,85.80
2019-04-14T03:29:02.370Z,85.60
2019-04-14T03:30:58.651Z,85.60
2019-04-14T03:32:17.561Z,85.40
2019-04-14T03:33:48.283Z,85.50
2019-04-14T03:37:50.786Z,85.40
2019-04-14T03:39:26.556Z,85.20
2019-04-14T03:40:45.820Z,85.10
2019-04-14T03:42:13.250Z,84.80
2019-04-14T03:48:31.499Z,84.20
2019-04-14T03:49:26.911Z,84.30
2019-04-14T03:50:58.371Z,84.90
2019-04-14T03:53:40.195Z,83.80
2019-04-14T03:55:02.695Z,83.50
2019-04-14T03:56:48.986Z,83.30
2019-04-14T03:58:15.935Z,83.20
2019-04-14T03:59:41.737Z,82.90
2019-04-14T04:01:08.266Z,82.80
2019-04-14T04:02:33.956Z,82.70
2019-04-14T04:04:00.653Z,82.80
2019-04-14T04:05:26.506Z,82.90
2019-04-14T04:06:53.062Z,83.00
2019-04-14T04:08:20.033Z,82.60
2019-04-14T04:09:51.879Z,82.40
2019-04-14T04:11:17.482Z,82.10
2019-04-14T04:12:44.272Z,82.10
2019-04-14T04:14:10.050Z,82.10
2019-04-14T04:15:36.505Z,82.10
2019-04-14T04:17:19.630Z,82.10
2019-04-14T04:18:56.215Z,81.80
2019-04-14T04:20:30.627Z,81.80
2019-04-14T04:22:17.222Z,82.10
2019-04-14T04:23:51.144Z,82.40
2019-04-14T04:25:22.491Z,82.80
2019-04-14T04:27:07.191Z,82.90
2019-04-14T04:28:49.663Z,83.20
2019-04-14T04:30:53.706Z,83.50
2019-04-14T04:32:29.757Z,83.80
2019-04-14T04:34:05.469Z,84.10
2019-04-14T04:35:54.334Z,84.60
2019-04-14T04:41:58.002Z,85.50
2019-04-14T04:43:23.748Z,85.80
2019-04-14T04:44:49.309Z,85.90
2019-04-14T04:46:15.603Z,85.80
2019-04-14T04:47:42.580Z,85.90
2019-04-14T04:49:15.933Z,86.10
2019-04-14T04:50:36.715Z,86.20
2019-04-14T04:52:03.974Z,86.90
2019-04-14T04:53:30.858Z,86.00
2019-04-14T04:54:56.523Z,86.10
2019-04-14T04:56:23.043Z,86.10
2019-04-14T04:57:50.184Z,86.10
2019-04-14T04:59:16.987Z,86.10
2019-04-14T05:00:43.813Z,86.10
2019-04-14T05:02:09.662Z,86.00
2019-04-14T05:03:36.159Z,85.90
2019-04-14T05:05:03.408Z,85.90
2019-04-14T05:06:57.064Z,85.70
2019-04-14T05:08:24.053Z,85.70
2019-04-14T05:10:08.748Z,85.70
2019-04-14T05:11:40.549Z,85.70
2019-04-14T05:13:14.109Z,85.60
2019-04-14T05:14:45.606Z,85.60
2019-04-14T05:16:11.302Z,85.60
2019-04-14T05:17:37.323Z,85.50
2019-04-14T05:19:16.208Z,85.60
2019-04-14T05:20:31.276Z,85.60
2019-04-14T05:21:58.033Z,85.50
2019-04-14T05:23:23.758Z,85.50
2019-04-14T05:24:50.662Z,85.30
2019-04-14T05:26:17.707Z,85.10
2019-04-14T05:27:43.546Z,84.90
2019-04-14T05:29:09.995Z,84.60
2019-04-14T05:30:35.555Z,84.40
2019-04-14T05:32:02.298Z,84.40
2019-04-14T05:33:29.265Z,83.90
2019-04-14T05:34:55.023Z,83.80
2019-04-14T05:36:21.467Z,83.70
2019-04-14T05:37:48.585Z,83.70
2019-04-14T05:39:15.568Z,83.70
2019-04-14T05:40:41.347Z,83.40
2019-04-14T05:42:13.239Z,83.20
2019-04-14T05:43:42.622Z,83.10
2019-04-14T05:45:02.318Z,82.80
2019-04-14T05:46:28.102Z,82.80
2019-04-14T05:47:54.345Z,83.50
2019-04-14T05:49:31.798Z,82.50
2019-04-14T05:50:47.127Z,82.30
2019-04-14T05:52:12.602Z,82.40
2019-04-14T05:53:39.297Z,82.30
2019-04-14T05:55:06.546Z,82.30
2019-04-14T05:56:35.004Z,82.00
2019-04-14T05:57:59.245Z,81.60
2019-04-14T05:59:24.825Z,81.20
2019-04-14T06:00:51.752Z,81.00
2019-04-14T06:02:18.062Z,81.10
2019-04-14T06:03:43.820Z,81.10
2019-04-14T06:05:11.268Z,81.20
2019-04-14T06:06:36.866Z,81.60
2019-04-14T06:08:02.405Z,82.20
2019-04-14T06:09:28.413Z,81.60
2019-04-14T06:10:53.894Z,81.60
2019-04-14T06:12:19.376Z,81.60
2019-04-14T06:13:45.103Z,81.80
2019-04-14T06:15:11.098Z,81.70
2019-04-14T06:16:36.588Z,81.50
2019-04-14T06:18:02.236Z,81.50
2019-04-14T06:19:37.811Z,81.50
2019-04-14T06:20:54.871Z,81.60
2019-04-14T06:22:20.501Z,81.70
2019-04-14T06:23:46.009Z,81.80
2019-04-14T06:25:11.805Z,81.80
2019-04-14T06:26:37.350Z,81.80
2019-04-14T06:28:02.976Z,81.80
2019-04-14T06:29:28.576Z,81.90
2019-04-14T06:31:31.779Z,81.90
2019-04-14T06:32:59.348Z,81.70
2019-04-14T06:34:46.610Z,81.30
2019-04-14T06:36:25.790Z,81.30
2019-04-14T06:38:18.888Z,81.20
2019-04-14T06:39:47.111Z,81.60
2019-04-14T06:41:15.932Z,81.40
2019-04-14T06:42:41.379Z,81.90
2019-04-14T06:44:07.246Z,82.30
2019-04-14T06:45:34.043Z,83.30
2019-04-14T06:46:59.612Z,83.50
2019-04-14T06:48:25.109Z,83.80
2019-04-14T06:49:50.639Z,84.30
2019-04-14T06:51:16.317Z,85.00
2019-04-14T06:52:41.870Z,84.80
2019-04-14T06:54:07.626Z,85.30
2019-04-14T06:55:33.166Z,86.00
2019-04-14T06:56:58.792Z,87.20
2019-04-14T06:58:24.498Z,87.30
2019-04-14T06:59:50.418Z,87.80
2019-04-14T07:01:15.883Z,88.30
2019-04-14T07:02:41.529Z,88.30
2019-04-14T07:04:07.048Z,88.00
2019-04-14T07:05:32.641Z,88.40
2019-04-14T07:06:58.197Z,88.80
2019-04-14T07:08:23.681Z,89.00
2019-04-14T07:09:49.231Z,89.00
2019-04-14T07:11:14.814Z,89.40
2019-04-14T07:12:42.893Z,89.00
2019-04-14T07:14:07.506Z,89.30
2019-04-14T07:15:32.981Z,89.30
2019-04-14T07:16:58.597Z,89.20
2019-04-14T07:18:24.084Z,89.50
2019-04-14T07:20:01.289Z,89.30
2019-04-14T07:21:16.678Z,89.10
2019-04-14T07:22:42.313Z,89.00
2019-04-14T07:24:07.779Z,89.10
2019-04-14T07:25:33.368Z,89.10
2019-04-14T07:26:58.890Z,89.10
2019-04-14T07:28:24.427Z,89.20
2019-04-14T07:30:04.403Z,88.70
2019-04-14T07:31:55.850Z,88.50
2019-04-14T07:33:46.049Z,88.20
2019-04-14T07:35:30.406Z,88.30
2019-04-14T07:37:19.135Z,88.20
2019-04-14T07:39:03.673Z,88.10
2019-04-14T07:40:47.968Z,87.80
2019-04-14T07:42:17.612Z,87.50
2019-04-14T07:43:53.428Z,87.30
2019-04-14T07:45:53.051Z,87.40
2019-04-14T07:47:24.633Z,87.30
2019-04-14T07:49:08.584Z,87.30
2019-04-14T07:50:59.136Z,87.40
2019-04-14T07:52:34.778Z,87.20
2019-04-14T07:54:07.847Z,87.10
2019-04-14T07:55:43.323Z,87.00
2019-04-14T07:57:36.705Z,87.50
2019-04-14T07:59:05.361Z,87.60
2019-04-14T08:00:41.127Z,87.30
2019-04-14T08:02:28.306Z,87.20
2019-04-14T08:04:14.605Z,87.30
2019-04-14T08:05:40.467Z,87.50
2019-04-14T08:07:06.221Z,87.30
2019-04-14T08:08:31.877Z,87.10
2019-04-14T08:09:57.462Z,87.30
2019-04-14T08:11:22.919Z,87.50
2019-04-14T08:12:48.539Z,87.50
2019-04-14T08:14:14.170Z,87.50
2019-04-14T08:15:39.698Z,87.80
2019-04-14T08:17:05.260Z,87.90
2019-04-14T08:18:30.758Z,87.80
2019-04-14T08:19:56.225Z,87.70
2019-04-14T08:21:21.724Z,87.60
2019-04-14T08:22:47.177Z,87.60
2019-04-14T08:24:12.683Z,87.80
2019-04-14T08:25:38.163Z,87.80
2019-04-14T08:27:03.675Z,87.90
2019-04-14T08:28:29.170Z,87.90
2019-04-14T08:29:54.680Z,88.10
2019-04-14T08:31:20.243Z,87.50
2019-04-14T08:32:45.801Z,87.10
2019-04-14T08:34:11.330Z,87.10
2019-04-14T08:35:36.811Z,87.10
2019-04-14T08:37:02.362Z,87.40
2019-04-14T08:38:27.931Z,87.40
2019-04-14T08:39:53.371Z,87.10
2019-04-14T08:41:18.872Z,86.50
2019-04-14T08:42:58.424Z,86.30
2019-04-14T08:44:35.767Z,86.40
2019-04-14T08:46:09.818Z,87.00
2019-04-14T08:48:06.083Z,87.60
2019-04-14T08:49:50.444Z,87.00
2019-04-14T08:51:21.514Z,86.70
2019-04-14T08:52:59.571Z,86.50
2019-04-14T08:54:33.503Z,86.50
2019-04-14T08:56:17.807Z,86.20
2019-04-14T08:58:05.278Z,85.90
2019-04-14T08:59:50.205Z,85.30
2019-04-14T09:01:40.644Z,85.10
2019-04-14T09:03:37.269Z,85.20
2019-04-14T09:05:10.814Z,84.70
2019-04-14T09:06:49.393Z,84.30
2019-04-14T09:08:33.732Z,83.60
2019-04-14T09:10:07.040Z,82.50
2019-04-14T09:11:42.883Z,82.20
2019-04-14T09:13:08.451Z,82.10
2019-04-14T09:14:33.998Z,81.90
2019-04-14T09:15:59.728Z,82.30
2019-04-14T09:17:26.185Z,83.00
2019-04-14T09:18:53.657Z,83.90
2019-04-14T09:20:18.838Z,83.90
2019-04-14T09:21:44.263Z,83.90
2019-04-14T09:23:09.750Z,84.10
2019-04-14T09:24:35.241Z,84.10
2019-04-14T09:26:00.701Z,84.10
2019-04-14T09:27:26.283Z,84.30
2019-04-14T09:28:51.782Z,84.40
2019-04-14T09:30:17.439Z,83.90
2019-04-14T09:31:42.914Z,84.30
2019-04-14T09:33:08.363Z,84.30
2019-04-14T09:34:33.895Z,84.20
2019-04-14T09:35:59.354Z,83.80
2019-04-14T09:37:25.107Z,83.70
2019-04-14T09:38:50.687Z,83.40
2019-04-14T09:40:16.192Z,83.10
2019-04-14T09:41:42.020Z,82.00
2019-04-14T09:43:07.665Z,81.40
2019-04-14T09:44:33.156Z,81.30
2019-04-14T09:45:58.751Z,81.50
2019-04-14T09:47:24.258Z,81.30
2019-04-14T09:48:49.825Z,81.10
2019-04-14T09:50:15.607Z,80.80
2019-04-14T09:51:41.128Z,80.30
2019-04-14T09:53:06.707Z,79.40
2019-04-14T09:54:32.208Z,78.80
2019-04-14T09:55:57.730Z,79.20
2019-04-14T09:57:23.179Z,78.60
2019-04-14T09:58:48.620Z,78.60
2019-04-14T10:00:15.189Z,78.10
2019-04-14T10:01:40.679Z,78.00
2019-04-14T10:03:06.202Z,77.20
2019-04-14T10:04:31.685Z,76.80
2019-04-14T10:05:57.633Z,76.60
2019-04-14T10:07:23.523Z,76.30
2019-04-14T10:08:49.112Z,76.50
2019-04-14T10:10:14.963Z,77.00
2019-04-14T10:11:48.586Z,77.30
2019-04-14T10:13:11.710Z,77.90
2019-04-14T10:14:38.812Z,78.90
2019-04-14T10:16:04.705Z,78.90
2019-04-14T10:17:30.380Z,79.80
2019-04-14T10:18:56.048Z,80.00
2019-04-14T10:20:22.035Z,80.70
2019-04-14T10:21:48.015Z,81.00
2019-04-14T10:23:13.974Z,81.60
2019-04-14T10:24:39.847Z,81.20
2019-04-14T10:26:05.648Z,81.30
2019-04-14T10:27:31.496Z,81.70
2019-04-14T10:28:57.474Z,81.80
2019-04-14T10:30:23.372Z,82.10
2019-04-14T10:31:49.243Z,82.20
2019-04-14T10:33:15.144Z,82.70
2019-04-14T10:34:40.624Z,82.10
2019-04-14T10:36:06.419Z,82.40
2019-04-14T10:37:35.476Z,83.30
2019-04-14T10:39:01.876Z,83.60
2019-04-14T10:40:27.730Z,84.10
2019-04-14T10:41:53.444Z,84.00
2019-04-14T10:43:19.288Z,83.50
2019-04-14T10:44:45.191Z,83.50
2019-04-14T10:46:11.203Z,83.90
2019-04-14T10:47:37.263Z,83.90
2019-04-14T10:49:03.214Z,83.70
2019-04-14T10:50:31.052Z,84.10
2019-04-14T10:51:56.475Z,84.90
2019-04-14T10:53:22.256Z,85.00
2019-04-14T10:54:48.205Z,85.30
2019-04-14T10:56:16.335Z,85.20
2019-04-14T10:57:42.029Z,85.30
2019-04-14T10:59:07.981Z,85.50
2019-04-14T11:00:33.710Z,86.40
2019-04-14T11:01:59.438Z,85.80
2019-04-14T11:03:28.244Z,86.40
2019-04-14T11:04:54.184Z,86.50
2019-04-14T11:06:48.760Z,86.30
2019-04-14T11:08:14.500Z,85.90
2019-04-14T11:09:40.404Z,86.40
2019-04-14T11:11:06.254Z,87.20
2019-04-14T11:12:31.710Z,86.80
2019-04-14T11:13:57.186Z,87.40
2019-04-14T11:15:22.722Z,87.30
2019-04-14T11:16:48.604Z,87.80
2019-04-14T11:18:14.049Z,88.50
2019-04-14T11:19:39.564Z,88.40
2019-04-14T11:21:05.471Z,89.10
2019-04-14T11:22:31.297Z,89.10
2019-04-14T11:23:56.743Z,89.00
2019-04-14T11:25:22.196Z,88.70
2019-04-14T11:26:47.660Z,89.20
2019-04-14T11:28:13.097Z,89.00
2019-04-14T11:29:38.786Z,89.00
2019-04-14T11:31:04.685Z,89.20
2019-04-14T11:32:49.198Z,89.50
2019-04-14T11:34:15.268Z,90.20
2019-04-14T12:54:31.895Z,92.80
2019-04-14T12:55:57.564Z,93.40
2019-04-14T12:57:42.491Z,93.10
2019-04-14T12:59:26.946Z,93.50
2019-04-14T13:00:59.780Z,94.10
2019-04-14T13:02:34.231Z,94.00
2019-04-14T13:03:59.705Z,94.00
2019-04-14T13:05:25.185Z,93.80
2019-04-14T13:06:50.768Z,93.80
2019-04-14T13:08:16.683Z,94.10
2019-04-14T13:09:42.178Z,94.20
2019-04-14T13:11:07.879Z,94.10
2019-04-14T13:12:33.402Z,94.20
2019-04-14T13:13:58.998Z,94.20
2019-04-14T13:15:24.914Z,94.30
2019-04-14T13:16:50.451Z,94.00
2019-04-14T13:18:17.924Z,93.90
2019-04-14T13:19:43.561Z,93.50
2019-04-14T13:21:09.068Z,93.60
2019-04-14T13:22:35.145Z,93.80
2019-04-14T13:24:00.699Z,93.70
2019-04-14T13:25:26.211Z,93.70
2019-04-14T13:26:51.766Z,93.60
2019-04-14T13:28:17.465Z,93.50
2019-04-14T13:29:43.020Z,93.50
2019-04-14T13:31:08.680Z,93.90
2019-04-14T13:32:36.501Z,94.20
2019-04-14T13:34:02.192Z,94.20
2019-04-14T13:35:37.299Z,94.20
2019-04-14T13:37:17.390Z,94.20
2019-04-14T13:38:44.406Z,94.50
2019-04-14T13:40:10.291Z,94.40
2019-04-14T13:41:36.210Z,94.60
2019-04-14T13:43:01.780Z,94.70
2019-04-14T13:44:27.432Z,94.90
2019-04-14T13:45:53.008Z,94.90
2019-04-14T13:47:18.686Z,94.70
2019-04-14T13:48:44.152Z,94.50
2019-04-14T13:50:09.914Z,94.70
2019-04-14T13:51:35.563Z,94.90
2019-04-14T13:53:01.437Z,94.90
2019-04-14T13:54:26.967Z,95.20
2019-04-14T13:55:52.863Z,95.20
2019-04-14T13:57:18.556Z,94.80
2019-04-14T13:58:44.016Z,94.90
2019-04-14T14:00:11.530Z,94.50
2019-04-14T14:01:37.208Z,94.40
2019-04-14T14:03:02.844Z,94.80
2019-04-14T14:04:28.481Z,94.60
2019-04-14T14:05:53.960Z,94.30
2019-04-14T14:07:19.493Z,94.60
2019-04-14T14:08:45.032Z,94.80
2019-04-14T14:10:10.976Z,94.80
2019-04-14T14:11:46.642Z,95.00
2019-04-14T14:13:34.070Z,95.30
2019-04-14T14:15:07.733Z,95.50
2019-04-14T14:16:59.144Z,95.60
2019-04-14T14:18:52.287Z,95.70
2019-04-14T14:20:34.995Z,95.80
2019-04-14T14:22:07.673Z,95.10
2019-04-14T14:24:01.048Z,95.20
2019-04-14T14:25:39.443Z,95.30
2019-04-14T14:27:04.961Z,95.20
2019-04-14T14:28:30.459Z,94.80
2019-04-14T14:29:55.888Z,94.80
2019-04-14T14:31:22.190Z,94.60
2019-04-14T14:32:47.631Z,94.60
2019-04-14T14:34:13.228Z,94.70
2019-04-14T14:35:38.816Z,94.60
2019-04-14T14:37:04.552Z,94.70
2019-04-14T14:38:30.002Z,94.50
2019-04-14T14:39:55.514Z,94.40
2019-04-14T14:41:21.634Z,94.20
2019-04-14T14:42:47.307Z,94.20
2019-04-14T14:44:12.848Z,94.60
2019-04-14T14:46:03.672Z,95.00
2019-04-14T14:47:30.710Z,95.40
2019-04-14T14:49:04.376Z,95.60
2019-04-14T14:50:35.588Z,95.80
2019-04-14T14:52:11.900Z,96.00
2019-04-14T14:53:37.359Z,96.10
2019-04-14T14:55:02.969Z,96.30
2019-04-14T14:56:28.507Z,96.50
2019-04-14T14:57:53.924Z,96.60
2019-04-14T14:59:19.368Z,97.00
2019-04-14T15:00:47.692Z,97.00
2019-04-14T15:02:13.359Z,97.30
2019-04-14T15:03:38.869Z,97.30
2019-04-14T15:05:04.705Z,97.30
2019-04-14T15:06:30.231Z,97.40
2019-04-14T15:07:55.775Z,97.40
2019-04-14T15:09:21.240Z,97.40
2019-04-14T15:10:46.864Z,97.50
2019-04-14T15:12:12.361Z,97.50
2019-04-14T15:13:38.399Z,97.40
2019-04-14T15:15:04.344Z,97.40
2019-04-14T15:16:29.839Z,97.30
2019-04-14T15:17:55.323Z,97.40
2019-04-14T15:19:20.875Z,97.40
2019-04-14T15:20:46.583Z,97.20
2019-04-14T15:22:12.147Z,97.20
2019-04-14T15:23:37.924Z,97.30
2019-04-14T15:25:03.691Z,97.50
2019-04-14T15:26:29.245Z,97.50
2019-04-14T15:27:54.685Z,97.50
2019-04-14T15:29:20.341Z,97.40
2019-04-14T15:30:45.951Z,97.50
2019-04-14T15:32:11.468Z,97.30
2019-04-14T15:33:36.944Z,97.30
2019-04-14T15:35:02.420Z,97.40
2019-04-14T15:36:27.929Z,97.50
2019-04-14T15:37:53.494Z,97.50
2019-04-14T15:39:19.090Z,97.70
2019-04-14T15:40:44.665Z,97.60
2019-04-14T15:42:10.170Z,97.60
2019-04-14T15:43:35.717Z,97.50
2019-04-14T15:45:01.221Z,97.60
2019-04-14T15:46:26.712Z,97.50
2019-04-14T15:47:52.459Z,97.40
2019-04-14T15:49:18.035Z,97.20
2019-04-14T15:50:43.757Z,97.20
2019-04-14T15:52:09.320Z,97.10
2019-04-14T15:53:38.324Z,97.10
2019-04-14T15:55:02.117Z,97.10
2019-04-14T15:56:45.368Z,96.90
2019-04-14T15:58:32.479Z,96.70
2019-04-14T16:00:25.928Z,96.60
2019-04-14T16:02:05.499Z,96.60
2019-04-14T16:03:38.693Z,96.50
2019-04-14T16:05:17.724Z,96.30
2019-04-14T16:07:11.270Z,96.30
2019-04-14T16:09:01.681Z,96.00
2019-04-14T16:10:35.257Z,95.70
2019-04-14T17:28:42.783Z,92.20
2019-04-14T17:30:26.568Z,90.80
2019-04-14T17:32:11.171Z,90.70
2019-04-14T17:33:42.159Z,90.50
2019-04-14T17:35:15.208Z,90.50
2019-04-14T17:36:48.647Z,90.50
2019-04-14T17:38:40.810Z,90.80
2019-04-14T17:40:24.753Z,90.80
2019-04-14T17:42:12.033Z,90.90
2019-04-14T17:43:41.203Z,90.90
2019-04-14T17:45:14.952Z,90.80
2019-04-14T17:46:52.960Z,90.80
2019-04-14T17:48:36.652Z,90.60
2019-04-14T17:50:15.436Z,90.50
2019-04-14T17:52:02.817Z,90.60
2019-04-14T17:53:35.452Z,90.80
2019-04-14T17:55:15.556Z,91.20
2019-04-14T17:56:46.300Z,91.30
2019-04-14T17:58:15.698Z,91.50
2019-04-14T17:59:47.689Z,91.80
2019-04-14T18:01:28.068Z,92.00
2019-04-14T18:03:24.612Z,92.20
2019-04-14T18:05:18.132Z,92.50
2019-04-14T18:07:11.280Z,92.80
2019-04-14T18:08:57.339Z,93.20
2019-04-14T18:10:47.035Z,93.20
2019-04-14T18:12:31.636Z,93.70
2019-04-14T18:14:16.871Z,93.70
2019-04-14T18:16:00.796Z,93.80
2019-04-14T18:17:48.516Z,94.10
2019-04-14T18:19:27.238Z,94.40
2019-04-14T18:20:56.258Z,94.40
2019-04-14T18:22:21.806Z,94.50
2019-04-14T18:23:47.332Z,94.50
2019-04-14T18:25:15.729Z,94.90
2019-04-14T18:26:41.215Z,95.10
2019-04-14T18:28:34.548Z,95.20
2019-04-14T18:30:28.184Z,95.30
2019-04-14T18:32:10.799Z,95.50
2019-04-14T18:34:12.409Z,95.30
2019-04-14T18:35:47.833Z,95.30
2019-04-14T18:37:20.240Z,95.30
2019-04-14T18:39:10.325Z,95.30
2019-04-14T18:41:12.706Z,95.10
2019-04-14T18:42:42.319Z,95.30
2019-04-14T18:44:25.037Z,95.40
2019-04-14T18:45:57.769Z,95.40
2019-04-14T18:47:26.690Z,95.40
2019-04-14T18:48:57.618Z,95.40
2019-04-14T18:50:41.066Z,95.40
2019-04-14T18:52:29.020Z,95.40
2019-04-14T18:54:13.388Z,95.30
2019-04-14T18:56:09.347Z,95.30
2019-04-14T18:57:56.277Z,95.30
2019-04-14T18:59:30.363Z,95.30
2019-04-14T19:01:06.151Z,95.20
2019-04-14T19:02:31.593Z,95.20
2019-04-14T19:03:57.084Z,95.20
2019-04-14T19:05:26.146Z,95.20
2019-04-14T19:06:51.663Z,95.20
2019-04-14T19:08:17.129Z,95.20
2019-04-14T19:09:42.629Z,95.10
2019-04-14T19:13:45.197Z,95.10
2019-04-14T19:15:26.586Z,94.90
2019-04-14T19:16:59.091Z,94.90
2019-04-14T19:18:32.799Z,94.80
2019-04-14T19:20:02.059Z,94.70
2019-04-14T19:21:27.883Z,94.50
2019-04-14T19:22:53.907Z,94.40
2019-04-14T19:24:19.528Z,94.30
2019-04-14T19:25:45.094Z,94.30
2019-04-14T19:27:10.592Z,94.40
2019-04-14T19:28:36.071Z,94.60
2019-04-14T19:30:01.602Z,94.80
2019-04-14T19:31:27.399Z,94.90
2019-04-14T19:32:53.395Z,95.00
2019-04-14T19:34:19.052Z,95.00
2019-04-14T19:35:44.732Z,95.20
2019-04-14T19:37:10.249Z,95.20
2019-04-14T19:38:35.738Z,95.30
2019-04-14T20:29:25.523Z,96.00
2019-04-14T20:30:55.724Z,96.20
2019-04-14T20:32:23.907Z,95.80
2019-04-14T20:33:49.408Z,95.90
2019-04-14T20:35:15.299Z,95.80
2019-04-14T20:36:40.808Z,95.80
2019-04-14T20:38:06.405Z,95.70
2019-04-14T20:39:32.851Z,95.60
2019-04-14T20:40:58.405Z,95.60
2019-04-14T20:42:24.169Z,95.60
2019-04-14T20:43:49.763Z,95.60
2019-04-14T20:45:15.896Z,95.60
2019-04-14T20:46:41.871Z,95.60
2019-04-14T20:48:07.653Z,95.60
2019-04-14T20:49:33.175Z,95.60
2019-04-14T20:50:58.787Z,95.60
2019-04-14T20:52:24.443Z,95.60
2019-04-14T20:53:49.867Z,95.50
2019-04-14T20:55:15.478Z,95.50
2019-04-14T20:56:41.143Z,95.60
2019-04-14T20:58:06.890Z,95.50
2019-04-14T20:59:32.377Z,95.60
2019-04-14T21:00:57.857Z,95.50
2019-04-14T21:02:57.313Z,95.40
2019-04-14T21:04:42.431Z,95.40
2019-04-14T21:06:21.933Z,95.70
2019-04-14T21:08:13.606Z,95.40
2019-04-14T21:09:58.112Z,95.30
2019-04-14T21:11:27.331Z,95.80
2019-04-14T21:13:11.638Z,95.90
2019-04-14T21:15:04.971Z,96.00
2019-04-14T21:17:04.977Z,96.00
2019-04-14T21:18:44.284Z,96.20
2019-04-14T21:20:31.796Z,96.20
2019-04-14T21:22:16.107Z,96.30
2019-04-14T21:24:09.571Z,96.40
2019-04-14T21:26:12.000Z,96.40
2019-04-14T21:27:56.479Z,96.50
2019-04-14T21:29:46.919Z,96.50
2019-04-14T21:31:19.302Z,96.70
2019-04-14T21:32:50.881Z,96.90
2019-04-14T21:34:23.700Z,96.90
2019-04-14T21:35:56.439Z,97.00
2019-04-14T21:37:27.424Z,97.00
2019-04-14T21:39:07.714Z,97.00
2019-04-14T21:40:50.980Z,97.10
2019-04-14T21:42:16.529Z,97.10
2019-04-14T21:43:42.043Z,97.10
2019-04-14T21:45:08.085Z,97.00
2019-04-14T21:46:33.590Z,97.10
2019-04-14T21:47:59.129Z,97.10
2019-04-14T21:49:24.658Z,97.20
2019-04-14T21:50:50.167Z,97.10
2019-04-14T21:52:43.707Z,97.00
2019-04-14T21:54:09.277Z,96.90
2019-04-14T21:55:34.971Z,97.00
2019-04-14T21:57:25.045Z,97.10
2019-04-14T21:59:02.409Z,97.00
2019-04-14T22:01:29.056Z,96.80
2019-04-14T22:03:24.554Z,96.90
2019-04-14T22:05:16.028Z,96.90
2019-04-14T22:06:42.530Z,97.20
2019-04-14T22:08:21.654Z,97.30
2019-04-14T22:09:47.184Z,97.40
2019-04-14T22:11:17.730Z,97.30
2019-04-14T22:12:43.454Z,97.30
2019-04-14T22:14:08.979Z,97.40
2019-04-14T22:15:34.567Z,97.30
2019-04-14T22:17:00.035Z,97.30
2019-04-14T22:18:27.860Z,97.40
2019-04-14T22:19:53.536Z,97.50
2019-04-14T22:21:19.955Z,97.40
2019-04-14T22:22:45.566Z,97.50
2019-04-14T22:24:11.131Z,97.40
2019-04-14T22:25:37.001Z,97.40
2019-04-14T22:27:02.504Z,97.30
2019-04-14T22:28:27.968Z,97.40
2019-04-14T22:29:53.568Z,97.30
2019-04-14T22:31:19.375Z,97.50
2019-04-14T22:32:44.840Z,97.60
2019-04-14T22:34:10.396Z,97.60
2019-04-14T22:35:35.870Z,97.60
2019-04-14T22:37:01.335Z,97.60
2019-04-14T22:38:26.870Z,97.50
2019-04-14T22:39:52.420Z,97.70
2019-04-14T22:41:17.896Z,97.90
2019-04-14T22:42:43.477Z,98.40
2019-04-14T22:44:09.136Z,98.10
2019-04-14T22:45:34.722Z,98.00
2019-04-14T22:47:00.180Z,97.80
2019-04-14T22:48:25.635Z,97.90
2019-04-14T22:49:51.123Z,97.70
2019-04-14T22:51:16.576Z,97.60
2019-04-14T22:52:42.110Z,97.80
2019-04-14T22:54:07.661Z,97.60
2019-04-14T22:55:33.198Z,97.60
2019-04-14T22:56:58.640Z,97.50
2019-04-14T22:58:24.167Z,97.50
2019-04-14T22:59:49.673Z,97.70
2019-04-14T23:01:28.261Z,97.90
2019-04-14T23:03:04.063Z,97.90
2019-04-14T23:04:42.798Z,97.90
2019-04-14T23:06:42.486Z,97.90
2019-04-14T23:08:20.096Z,97.90
2019-04-14T23:09:53.492Z,97.80
2019-04-14T23:11:41.941Z,97.70
2019-04-14T23:13:22.390Z,97.60
2019-04-14T23:15:09.734Z,97.60
2019-04-14T23:16:49.230Z,97.60